Time;durP1;ratioP1;P1;durP2;ratioP2;P2;SDS_P1;SDS_P2;PMS_P1;PMS_P2;Temp;Humidity;BMP_temperature;BMP_pressure;BME280_temperature;BME280_humidity;BME280_pressure;Samples;Min_cycle;Max_cycle;Signal;HPM_P1;HPM_P2
2021/04/02 00:00:37;;;;;;;27.08;11.60;;;;;;;7.01;88.49;101952.09;4982389;28;20156;-72
2021/04/02 00:03:13;;;;;;;24.30;10.93;;;;;;;6.96;88.56;101940.69;4981615;28;20537;-72
2021/04/02 00:05:38;;;;;;;23.25;10.50;;;;;;;6.89;88.91;101943.53;4981774;28;20120;-71
2021/04/02 00:08:04;;;;;;;24.27;11.32;;;;;;;6.87;88.73;101948.03;4982724;28;20121;-72
2021/04/02 00:10:36;;;;;;;26.65;11.25;;;;;;;6.82;89.23;101949.09;4980490;28;20026;-72
2021/04/02 00:13:01;;;;;;;24.95;10.73;;;;;;;6.77;89.64;101949.22;4985177;28;20026;-72
2021/04/02 00:15:27;;;;;;;22.10;10.65;;;;;;;6.75;89.41;101944.84;4979533;28;20388;-72
2021/04/02 00:17:52;;;;;;;23.98;11.40;;;;;;;6.70;89.94;101947.66;4986149;28;20376;-72
2021/04/02 00:20:19;;;;;;;26.05;11.35;;;;;;;6.72;89.85;101944.94;4982806;28;20672;-72
2021/04/02 00:22:45;;;;;;;22.38;10.07;;;;;;;6.64;90.29;101944.28;4985322;28;20112;-72
2021/04/02 00:25:13;;;;;;;21.08;9.95;;;;;;;6.60;90.42;101943.50;4984885;28;20463;-72
2021/04/02 00:27:39;;;;;;;24.33;10.75;;;;;;;6.56;90.28;101941.84;4987472;28;20410;-72
2021/04/02 00:30:14;;;;;;;21.00;10.50;;;;;;;6.54;90.34;101941.03;4981017;28;20035;-72
2021/04/02 00:32:40;;;;;;;19.42;10.07;;;;;;;6.55;89.89;101941.88;4982228;28;20418;-72
2021/04/02 00:35:06;;;;;;;19.23;9.45;;;;;;;6.52;90.13;101933.97;4978410;28;20043;-72
2021/04/02 00:37:32;;;;;;;21.55;10.43;;;;;;;6.44;90.44;101929.72;4980517;28;20418;-72
2021/04/02 00:39:57;;;;;;;21.70;9.07;;;;;;;6.39;90.82;101930.75;4976675;28;20038;-72
2021/04/02 00:42:23;;;;;;;21.02;9.68;;;;;;;6.40;90.65;101928.06;4985262;28;20034;-72
2021/04/02 00:44:48;;;;;;;18.75;9.18;;;;;;;6.36;90.79;101933.50;4980674;28;20173;-72
2021/04/02 00:47:13;;;;;;;18.90;9.20;;;;;;;6.34;91.10;101932.69;4984190;28;20049;-70
2021/04/02 00:49:39;;;;;;;18.65;8.93;;;;;;;6.27;91.22;101928.44;4980747;28;20236;-72
2021/04/02 00:52:05;;;;;;;19.17;8.77;;;;;;;6.29;91.20;101929.28;4983315;28;20503;-72
2021/04/02 00:54:30;;;;;;;20.70;9.13;;;;;;;6.24;91.21;101925.84;4980727;28;20483;-72
2021/04/02 00:56:56;;;;;;;20.90;8.98;;;;;;;6.22;91.29;101923.25;4969087;28;20439;-70
2021/04/02 00:59:21;;;;;;;16.90;9.93;;;;;;;6.20;91.45;101919.72;4984416;28;20045;-72
2021/04/02 01:01:47;;;;;;;15.70;8.63;;;;;;;6.22;91.29;101927.69;4983129;28;20108;-70
2021/04/02 01:04:13;;;;;;;17.00;8.20;;;;;;;6.22;90.96;101922.34;4981766;28;20038;-70
2021/04/02 01:06:41;;;;;;;20.42;9.68;;;;;;;6.19;90.76;101923.31;4981715;28;21284;-70
2021/04/02 01:09:08;;;;;;;16.88;9.35;;;;;;;6.18;90.36;101918.88;4983170;28;20038;-70
2021/04/02 01:11:34;;;;;;;22.50;8.85;;;;;;;6.18;89.99;101916.22;4983529;28;20122;-70
2021/04/02 01:14:03;;;;;;;23.13;10.25;;;;;;;6.12;90.13;101921.72;4983219;28;20030;-69
2021/04/02 01:16:32;;;;;;;19.55;8.57;;;;;;;6.04;90.65;101923.72;4981312;28;20053;-69
2021/04/02 01:19:07;;;;;;;18.25;8.50;;;;;;;5.99;90.86;101923.81;4983456;28;20034;-70
2021/04/02 01:21:41;;;;;;;16.23;8.82;;;;;;;5.90;91.33;101920.53;4980959;28;20386;-72
2021/04/02 01:24:22;;;;;;;21.50;8.85;;;;;;;5.89;91.50;101929.44;4980049;28;20038;-72
2021/04/02 01:27:10;;;;;;;19.88;8.57;;;;;;;5.86;91.62;101924.19;4983338;28;20133;-72
2021/04/02 01:29:45;;;;;;;19.35;9.68;;;;;;;5.79;92.05;101928.78;4980376;28;20026;-70
2021/04/02 01:32:18;;;;;;;14.85;9.18;;;;;;;5.76;92.16;101923.50;4983688;28;20030;-71
2021/04/02 01:34:48;;;;;;;19.15;8.57;;;;;;;5.72;92.31;101928.97;4980992;28;20042;-71
2021/04/02 01:37:51;;;;;;;18.48;8.20;;;;;;;5.69;92.53;101933.44;4983063;28;20395;-71
2021/04/02 01:40:19;;;;;;;18.38;8.10;;;;;;;5.70;92.35;101937.00;4971157;28;20399;-71
2021/04/02 01:42:46;;;;;;;15.77;8.00;;;;;;;5.74;91.79;101932.47;4980725;28;20490;-69
2021/04/02 01:45:16;;;;;;;17.25;8.27;;;;;;;5.67;92.11;101929.97;4983401;28;20573;-69
2021/04/02 01:47:43;;;;;;;16.05;8.65;;;;;;;5.64;92.26;101929.16;4982374;28;20041;-69
2021/04/02 01:50:13;;;;;;;18.67;8.27;;;;;;;5.60;92.31;101928.38;4977988;28;20194;-69
2021/04/02 01:52:42;;;;;;;16.02;8.32;;;;;;;5.62;92.47;101926.50;4960045;28;20498;-69
2021/04/02 01:55:11;;;;;;;20.15;9.43;;;;;;;5.54;92.51;101928.50;4982558;28;20678;-71
2021/04/02 01:57:39;;;;;;;16.95;8.20;;;;;;;5.52;92.93;101932.13;4983659;28;20042;-71
2021/04/02 02:00:11;;;;;;;15.43;8.00;;;;;;;5.48;93.20;101928.66;4980596;28;20038;-71
2021/04/02 02:02:43;;;;;;;20.70;8.35;;;;;;;5.43;93.25;101933.19;4982548;28;20042;-71
2021/04/02 02:05:11;;;;;;;15.73;8.48;;;;;;;5.37;93.75;101928.03;4980838;28;20498;-71
2021/04/02 02:07:42;;;;;;;20.60;7.95;;;;;;;5.37;93.75;101925.34;4982251;28;20030;-71
2021/04/02 02:10:10;;;;;;;20.70;7.90;;;;;;;5.38;93.87;101929.78;4982035;28;20076;-71
2021/04/02 02:12:40;;;;;;;12.15;7.40;;;;;;;5.41;93.45;101928.84;4982294;28;20038;-71
2021/04/02 02:15:31;;;;;;;33.55;9.02;;;;;;;5.37;93.64;101922.69;4983613;28;20117;-71
2021/04/02 02:18:03;;;;;;;15.75;7.95;;;;;;;5.36;93.81;101934.28;4979650;28;20034;-71
2021/04/02 02:20:31;;;;;;;17.33;8.47;;;;;;;5.30;94.44;101931.75;4981175;28;20038;-71
2021/04/02 02:23:00;;;;;;;20.13;8.32;;;;;;;5.34;94.51;101924.56;4981348;28;20030;-71
2021/04/02 02:25:29;;;;;;;20.20;8.70;;;;;;;5.32;94.95;101927.25;4985649;28;20030;-71
2021/04/02 02:28:03;;;;;;;21.52;8.77;;;;;;;5.35;95.09;101931.66;4986942;28;20739;-71
2021/04/02 02:30:31;;;;;;;26.08;9.52;;;;;;;5.43;95.36;101925.22;4985393;28;20031;-69
2021/04/02 02:33:09;;;;;;;19.92;9.32;;;;;;;5.34;95.69;101930.78;4982864;28;20653;-71
2021/04/02 02:35:44;;;;;;;20.05;8.20;;;;;;;5.30;95.96;101923.78;4987249;28;20034;-69
2021/04/02 02:38:11;;;;;;;17.45;9.02;;;;;;;5.24;96.37;101929.25;4974599;28;20090;-69
2021/04/02 02:40:37;;;;;;;18.35;9.77;;;;;;;5.26;96.64;101940.72;4978044;28;20031;-69
2021/04/02 02:43:04;;;;;;;19.60;9.00;;;;;;;5.23;96.92;101938.13;4979488;28;20270;-69
2021/04/02 02:45:33;;;;;;;18.65;9.55;;;;;;;5.23;97.02;101938.13;4984600;28;20103;-69
2021/04/02 02:48:00;;;;;;;21.25;8.55;;;;;;;5.29;96.99;101932.66;4970600;28;20487;-70
2021/04/02 02:50:35;;;;;;;20.50;9.10;;;;;;;5.31;97.08;101940.63;4975214;28;20030;-72
2021/04/02 02:53:03;;;;;;;20.08;9.25;;;;;;;5.31;97.17;101940.63;4981642;28;20121;-72
2021/04/02 02:55:34;;;;;;;25.20;9.38;;;;;;;5.33;97.39;101944.09;4981891;28;20034;-70
2021/04/02 02:58:03;;;;;;;19.67;9.52;;;;;;;5.34;97.72;101936.09;4987800;28;20050;-72
2021/04/02 03:00:41;;;;;;;17.60;8.98;;;;;;;5.33;97.81;101938.78;4981985;28;20034;-72
2021/04/02 03:03:13;;;;;;;13.52;9.25;;;;;;;5.31;97.79;101941.47;4978476;28;20061;-72
2021/04/02 03:05:46;;;;;;;22.40;9.52;;;;;;;5.28;98.24;101936.22;4978726;28;20030;-72
2021/04/02 03:08:16;;;;;;;18.58;9.38;;;;;;;5.36;98.52;101942.28;4986313;28;20030;-72
2021/04/02 03:10:43;;;;;;;16.45;9.77;;;;;;;5.43;97.43;101938.53;4978844;28;20031;-72
2021/04/02 03:13:09;;;;;;;18.27;8.90;;;;;;;5.40;97.97;101927.97;4985978;28;20618;-72
2021/04/02 03:15:36;;;;;;;23.77;9.23;;;;;;;5.51;97.86;101927.69;4983318;28;20692;-72
2021/04/02 03:18:08;;;;;;;20.00;9.95;;;;;;;5.44;98.00;101924.31;4969711;28;20034;-72
2021/04/02 03:20:37;;;;;;;19.50;9.20;;;;;;;5.37;98.02;101920.03;4983383;28;20031;-70
2021/04/02 03:23:08;;;;;;;19.92;9.15;;;;;;;5.40;98.28;101925.28;4986505;28;20037;-72
2021/04/02 03:25:38;;;;;;;19.58;9.70;;;;;;;5.40;98.32;101927.97;4986518;28;20092;-72
2021/04/02 03:28:10;;;;;;;24.90;8.32;;;;;;;5.44;98.41;101918.97;4985689;28;20065;-72
2021/04/02 03:30:43;;;;;;;21.80;9.32;;;;;;;5.41;98.50;101927.06;4980103;28;20046;-72
2021/04/02 03:33:40;;;;;;;22.90;9.50;;;;;;;5.36;98.90;101928.97;4983168;28;20038;-70
2021/04/02 03:36:14;;;;;;;20.23;9.38;;;;;;;5.38;99.00;101932.44;4978518;28;20046;-72
2021/04/02 03:38:45;;;;;;;15.57;8.57;;;;;;;5.40;99.31;101948.38;4983191;28;20026;-72
2021/04/02 03:41:18;;;;;;;21.92;9.32;;;;;;;5.42;98.92;101928.81;4986235;28;20037;-70
2021/04/02 03:43:47;;;;;;;17.83;8.65;;;;;;;5.51;98.99;101933.03;4983105;28;20748;-70
2021/04/02 03:46:14;;;;;;;16.25;8.80;;;;;;;5.41;99.38;101931.50;4980488;28;20430;-69
2021/04/02 03:48:44;;;;;;;21.05;8.82;;;;;;;5.50;99.13;101931.25;4986045;28;20037;-70
2021/04/02 03:51:15;;;;;;;19.38;9.55;;;;;;;5.44;99.46;101931.41;4981638;28;20442;-72
2021/04/02 03:53:46;;;;;;;21.75;8.70;;;;;;;5.49;99.71;101935.72;4981754;28;20495;-71
2021/04/02 03:56:16;;;;;;;19.83;8.63;;;;;;;5.41;99.65;101935.03;4983569;28;20624;-72
2021/04/02 03:58:45;;;;;;;21.50;8.35;;;;;;;5.45;99.93;101931.38;4980971;28;20061;-72
2021/04/02 04:01:14;;;;;;;19.55;8.27;;;;;;;5.46;99.98;101934.94;4981448;28;20038;-72
2021/04/02 04:03:44;;;;;;;17.40;8.15;;;;;;;5.54;99.84;101933.84;4979868;28;20435;-72
2021/04/02 04:06:14;;;;;;;17.27;8.52;;;;;;;5.50;99.44;101936.59;4983794;28;20042;-72
2021/04/02 04:08:42;;;;;;;18.77;7.80;;;;;;;5.63;99.88;101932.72;4980095;28;20030;-72
2021/04/02 04:11:13;;;;;;;21.02;7.80;;;;;;;5.49;99.69;101937.53;4984622;28;20038;-72
2021/04/02 04:13:44;;;;;;;18.73;8.13;;;;;;;5.44;100.00;101934.94;4986007;28;20246;-72
2021/04/02 04:16:13;;;;;;;19.75;8.20;;;;;;;5.46;100.00;101934.94;4979476;28;20554;-70
2021/04/02 04:18:40;;;;;;;15.77;8.15;;;;;;;5.50;100.00;101937.47;4984330;28;20045;-70
2021/04/02 04:21:07;;;;;;;25.92;9.02;;;;;;;5.46;100.00;101929.59;4983908;28;20034;-70
2021/04/02 04:24:16;;;;;;;19.63;7.45;;;;;;;5.54;100.00;101925.84;4979404;28;20691;-72
2021/04/02 04:26:44;;;;;;;18.60;9.02;;;;;;;5.62;100.00;101934.50;4983255;28;20030;-72
2021/04/02 04:29:16;;;;;;;21.77;8.27;;;;;;;5.57;100.00;101928.41;4984406;28;20034;-72
2021/04/02 04:31:43;;;;;;;23.80;7.88;;;;;;;5.56;100.00;101932.00;4988999;28;20034;-72
2021/04/02 04:34:11;;;;;;;19.02;7.57;;;;;;;5.52;100.00;101935.66;4984964;28;20034;-72
2021/04/02 04:36:38;;;;;;;20.98;7.32;;;;;;;5.47;100.00;101942.88;4981622;28;20122;-72
2021/04/02 04:39:06;;;;;;;20.00;8.35;;;;;;;5.52;100.00;101935.66;4982481;28;20031;-72
2021/04/02 04:41:33;;;;;;;19.45;7.70;;;;;;;5.48;100.00;101941.09;4982845;28;20120;-72
2021/04/02 04:44:01;;;;;;;21.15;9.48;;;;;;;5.50;100.00;101941.91;4984678;28;20054;-72
2021/04/02 04:46:27;;;;;;;20.83;7.60;;;;;;;5.55;100.00;101943.59;4981853;28;20358;-72
2021/04/02 04:48:53;;;;;;;18.35;7.80;;;;;;;5.59;100.00;101958.56;4994085;28;20034;-72
2021/04/02 04:51:20;;;;;;;17.10;7.57;;;;;;;5.56;100.00;101963.06;4977368;28;20038;-72
2021/04/02 04:53:51;;;;;;;21.67;7.38;;;;;;;5.55;100.00;101966.69;4986536;28;20030;-72
2021/04/02 04:56:19;;;;;;;22.80;7.93;;;;;;;5.45;100.00;101968.66;4983252;28;20034;-72
2021/04/02 04:58:47;;;;;;;20.23;7.03;;;;;;;5.61;99.93;101967.41;4983469;28;20026;-71
2021/04/02 05:01:14;;;;;;;24.90;7.40;;;;;;;5.48;100.00;101965.94;4981079;28;20084;-72
2021/04/02 05:03:40;;;;;;;22.88;9.43;;;;;;;5.49;100.00;101969.50;4984301;28;20038;-72
2021/04/02 05:06:07;;;;;;;30.20;10.05;;;;;;;5.43;100.00;101967.81;4979886;28;20034;-71
2021/04/02 05:08:41;;;;;;;33.00;10.95;;;;;;;5.42;100.00;101971.41;4984279;28;20036;-71
2021/04/02 05:11:12;;;;;;;24.17;9.40;;;;;;;5.41;100.00;101968.78;4977852;28;20442;-71
2021/04/02 05:13:39;;;;;;;31.85;10.85;;;;;;;5.46;100.00;101967.75;4981243;28;20602;-72
2021/04/02 05:16:05;;;;;;;33.53;11.73;;;;;;;5.37;100.00;101975.94;4982557;28;20041;-72
2021/04/02 05:18:33;;;;;;;32.95;12.55;;;;;;;5.44;100.00;101974.00;4982548;28;20411;-71
2021/04/02 05:20:58;;;;;;;31.15;13.70;;;;;;;5.39;100.00;101976.78;4980215;28;20084;-71
2021/04/02 05:23:23;;;;;;;39.42;14.15;;;;;;;5.33;100.00;101976.94;4983877;28;20475;-72
2021/04/02 05:25:49;;;;;;;29.83;13.60;;;;;;;5.32;100.00;101969.84;4983399;28;20046;-72
2021/04/02 05:28:15;;;;;;;33.22;13.20;;;;;;;5.40;100.00;101985.66;4985235;28;20034;-71
2021/04/02 05:30:40;;;;;;;33.20;14.32;;;;;;;5.35;100.00;101980.44;4986152;28;20625;-72
2021/04/02 05:33:06;;;;;;;61.80;21.23;;;;;;;5.44;100.00;101979.34;4983801;28;20034;-72
2021/04/02 05:35:32;;;;;;;65.50;23.88;;;;;;;5.34;100.00;101977.81;4975501;28;20030;-72
2021/04/02 05:37:58;;;;;;;68.72;25.65;;;;;;;5.34;100.00;101976.03;4981361;28;20038;-72
2021/04/02 05:40:24;;;;;;;78.68;28.92;;;;;;;5.33;100.00;101981.38;4990833;28;20101;-72
2021/04/02 05:43:11;;;;;;;80.40;26.77;;;;;;;5.34;100.00;101981.34;4984575;28;20048;-72
2021/04/02 05:45:38;;;;;;;63.13;21.30;;;;;;;5.43;100.00;101981.13;4980110;28;20034;-72
2021/04/02 05:48:05;;;;;;;61.08;21.55;;;;;;;5.36;100.00;101984.88;4984267;28;20411;-72
2021/04/02 05:50:32;;;;;;;59.60;19.35;;;;;;;5.43;100.00;101988.28;4976581;28;20045;-72
2021/04/02 05:53:03;;;;;;;57.65;21.15;;;;;;;5.40;100.00;101986.53;4983032;28;20034;-70
2021/04/02 05:55:34;;;;;;;64.13;20.75;;;;;;;5.39;100.00;101987.44;4978023;28;20026;-69
2021/04/02 05:58:04;;;;;;;56.25;17.58;;;;;;;5.43;100.00;101989.13;4982968;28;20044;-70
2021/04/02 06:00:31;;;;;;;40.70;17.20;;;;;;;5.51;100.00;101991.59;4981728;28;20450;-69
2021/04/02 06:02:59;;;;;;;45.92;17.25;;;;;;;5.54;100.00;101995.09;4983974;28;20042;-69
2021/04/02 06:05:25;;;;;;;37.00;14.45;;;;;;;5.48;100.00;101992.56;4984217;28;20651;-70
2021/04/02 06:07:52;;;;;;;40.13;16.38;;;;;;;5.52;100.00;101990.69;4962013;28;20035;-70
2021/04/02 06:10:18;;;;;;;39.05;15.10;;;;;;;5.59;100.00;101994.97;4981551;28;20026;-70
2021/04/02 06:12:43;;;;;;;47.08;16.17;;;;;;;5.60;100.00;101996.75;4984966;28;20034;-70
2021/04/02 06:15:09;;;;;;;62.90;19.92;;;;;;;5.72;100.00;101995.56;4981827;28;20038;-70
2021/04/02 06:18:10;;;;;;;53.25;19.70;;;;;;;5.65;100.00;101995.72;4984044;28;20169;-69
2021/04/02 06:20:40;;;;;;;50.08;18.10;;;;;;;5.62;100.00;102001.09;4973426;28;20093;-72
2021/04/02 06:23:13;;;;;;;56.47;19.73;;;;;;;5.70;99.92;101992.94;4979814;28;20047;-72
2021/04/02 06:25:46;;;;;;;50.05;17.60;;;;;;;5.77;99.58;101996.34;4978436;28;20043;-71
2021/04/02 06:28:13;;;;;;;46.75;16.17;;;;;;;5.79;99.45;101998.06;4984120;28;20053;-72
2021/04/02 06:30:41;;;;;;;44.05;16.55;;;;;;;5.84;99.15;101995.28;4981538;28;20043;-72
2021/04/02 06:33:08;;;;;;;41.95;18.80;;;;;;;5.80;99.36;101998.94;4974057;28;20113;-72
2021/04/02 06:35:36;;;;;;;44.85;18.85;;;;;;;5.83;99.46;101998.84;4979189;28;20411;-72
2021/04/02 06:38:02;;;;;;;47.70;18.48;;;;;;;5.77;100.00;101999.00;4972643;28;20077;-71
2021/04/02 06:40:29;;;;;;;49.08;20.73;;;;;;;5.81;100.00;101992.66;4983147;28;20035;-72
2021/04/02 06:42:59;;;;;;;59.08;21.48;;;;;;;5.90;100.00;101993.38;4985470;28;20053;-71
2021/04/02 06:45:24;;;;;;;63.38;23.50;;;;;;;5.94;99.29;101996.81;4983647;28;20037;-72
2021/04/02 06:47:50;;;;;;;53.75;22.00;;;;;;;5.95;99.84;101998.56;4977644;28;20038;-71
2021/04/02 06:50:22;;;;;;;70.93;26.17;;;;;;;6.04;99.37;102004.56;4979281;28;20026;-71
2021/04/02 06:52:51;;;;;;;67.93;24.52;;;;;;;6.05;97.83;102000.09;4980476;28;20034;-71
2021/04/02 06:55:17;;;;;;;71.95;27.70;;;;;;;6.04;98.67;102001.03;4982537;28;20034;-71
2021/04/02 06:57:46;;;;;;;83.90;34.00;;;;;;;6.03;98.25;102008.16;4983954;28;20034;-69
2021/04/02 07:00:21;;;;;;;142.38;52.55;;;;;;;6.05;98.76;102011.63;4982152;28;20045;-69
2021/04/02 07:02:48;;;;;;;87.68;34.33;;;;;;;6.17;98.04;102010.47;4979631;28;20129;-69
2021/04/02 07:05:16;;;;;;;88.95;33.72;;;;;;;6.19;97.13;102005.94;4978866;28;20034;-69
2021/04/02 07:07:44;;;;;;;80.53;34.17;;;;;;;6.14;97.70;102015.88;4983042;28;20526;-69
2021/04/02 07:10:10;;;;;;;75.93;33.17;;;;;;;6.10;97.11;102014.19;4984706;28;20045;-69
2021/04/02 07:12:38;;;;;;;81.38;33.90;;;;;;;6.08;96.95;102021.34;4987587;28;20037;-69
2021/04/02 07:15:05;;;;;;;81.82;35.75;;;;;;;6.16;97.28;102022.03;4978363;28;20041;-69
2021/04/02 07:17:31;;;;;;;80.13;34.15;;;;;;;6.15;96.51;102022.06;4987511;28;20038;-69
2021/04/02 07:19:57;;;;;;;72.95;32.90;;;;;;;6.16;96.74;102019.38;4983706;28;20483;-69
2021/04/02 07:22:23;;;;;;;65.85;27.85;;;;;;;6.14;97.26;102018.53;4987458;28;20030;-69
2021/04/02 07:24:49;;;;;;;63.45;25.35;;;;;;;6.22;96.64;102023.69;4978674;28;20030;-69
2021/04/02 07:27:14;;;;;;;66.93;28.88;;;;;;;6.21;96.97;102013.91;4984314;28;20034;-69
2021/04/02 07:29:41;;;;;;;88.97;32.35;;;;;;;6.11;97.41;102031.91;4981201;28;20034;-69
2021/04/02 07:32:08;;;;;;;81.60;34.67;;;;;;;6.16;96.08;102024.72;4985059;28;20414;-69
2021/04/02 07:34:34;;;;;;;91.15;37.20;;;;;;;6.08;96.85;102026.69;4984057;28;20034;-69
2021/04/02 07:37:00;;;;;;;81.90;35.55;;;;;;;6.11;97.17;102031.06;4979773;28;20530;-69
2021/04/02 07:39:30;;;;;;;78.72;34.63;;;;;;;6.20;97.73;102030.81;4985923;28;20046;-71
2021/04/02 07:41:56;;;;;;;79.97;31.35;;;;;;;6.26;97.12;102028.88;4985174;28;20038;-69
2021/04/02 07:44:22;;;;;;;69.68;30.60;;;;;;;6.31;97.30;102040.28;4984081;28;20052;-69
2021/04/02 07:47:08;;;;;;;76.65;29.95;;;;;;;6.40;96.22;102029.41;4987479;28;20045;-69
2021/04/02 07:49:54;;;;;;;62.13;28.02;;;;;;;6.44;95.74;102031.06;4986528;28;20042;-70
2021/04/02 07:52:32;;;;;;;71.88;30.73;;;;;;;6.44;95.39;102038.19;4984196;28;20045;-70
2021/04/02 07:55:10;;;;;;;52.78;24.08;;;;;;;6.53;95.02;102040.63;4985111;28;20560;-71
2021/04/02 07:58:00;;;;;;;34.70;16.52;;;;;;;6.47;95.17;102046.13;4978875;28;20072;-70
2021/04/02 08:00:31;;;;;;;52.47;20.95;;;;;;;6.54;94.37;102037.06;4984672;28;20026;-71
2021/04/02 08:03:05;;;;;;;48.28;23.20;;;;;;;6.55;94.22;102038.78;4986338;28;20487;-71
2021/04/02 08:05:30;;;;;;;67.85;27.77;;;;;;;6.49;94.53;102039.81;4979337;28;20047;-72
2021/04/02 08:07:57;;;;;;;59.22;26.55;;;;;;;6.50;95.11;102036.25;4986624;28;20041;-71
2021/04/02 08:10:24;;;;;;;56.88;25.30;;;;;;;6.56;94.28;102043.19;4984144;28;20034;-71
2021/04/02 08:12:49;;;;;;;34.95;13.43;;;;;;;6.60;93.92;102042.22;4981245;28;20089;-71
2021/04/02 08:15:17;;;;;;;20.60;9.35;;;;;;;6.58;92.99;102048.50;4986165;28;20038;-71
2021/04/02 08:17:44;;;;;;;32.40;9.07;;;;;;;6.58;94.18;102048.50;4986294;28;20113;-71
2021/04/02 08:20:09;;;;;;;17.00;9.13;;;;;;;6.68;94.07;102050.00;4987484;28;20038;-71
2021/04/02 08:22:36;;;;;;;30.67;14.40;;;;;;;6.64;93.87;102053.69;4979337;28;20045;-72
2021/04/02 08:25:15;;;;;;;31.83;14.25;;;;;;;6.70;92.11;102058.84;4983463;28;20414;-71
2021/04/02 08:27:41;;;;;;;34.22;14.45;;;;;;;6.77;92.99;102060.44;4983922;28;20430;-71
2021/04/02 08:30:09;;;;;;;34.50;11.35;;;;;;;6.81;91.63;102059.44;4985873;28;20088;-71
2021/04/02 08:32:43;;;;;;;19.42;8.40;;;;;;;6.75;91.74;102062.25;4985483;28;20038;-71
2021/04/02 08:35:11;;;;;;;31.92;11.63;;;;;;;6.76;92.72;102064.00;4986355;28;20561;-71
2021/04/02 08:37:36;;;;;;;41.22;15.73;;;;;;;6.86;91.64;102057.50;4981673;28;20718;-72
2021/04/02 08:40:09;;;;;;;34.28;11.57;;;;;;;6.70;91.81;102065.06;4976549;28;20117;-69
2021/04/02 08:42:35;;;;;;;28.53;12.57;;;;;;;6.74;91.51;102065.84;4984916;28;20099;-69
2021/04/02 08:45:07;;;;;;;49.60;22.70;;;;;;;6.52;92.03;102067.34;4978757;28;20034;-69
2021/04/02 08:47:36;;;;;;;46.70;21.23;;;;;;;6.67;92.44;102066.91;4985310;28;20072;-69
2021/04/02 08:50:03;;;;;;;38.40;17.08;;;;;;;6.66;91.85;102063.41;4985596;28;20038;-69
2021/04/02 08:52:29;;;;;;;44.92;18.85;;;;;;;6.52;92.40;102070.00;4985561;28;20034;-69
2021/04/02 08:54:56;;;;;;;55.53;24.33;;;;;;;6.55;92.67;102069.91;4984985;28;20483;-69
2021/04/02 08:57:27;;;;;;;69.55;30.50;;;;;;;6.53;93.18;102075.31;4977646;28;20609;-69
2021/04/02 08:59:54;;;;;;;75.30;33.00;;;;;;;6.54;93.38;102076.19;4986247;28;20032;-69
2021/04/02 09:02:21;;;;;;;74.00;31.02;;;;;;;6.69;93.41;102078.44;4989824;28;20066;-70
2021/04/02 09:04:50;;;;;;;72.07;29.58;;;;;;;6.72;93.42;102073.03;4988827;28;20031;-70
2021/04/02 09:07:17;;;;;;;64.72;29.75;;;;;;;6.76;92.69;102072.91;4971073;28;20030;-70
2021/04/02 09:09:46;;;;;;;75.60;32.80;;;;;;;6.84;92.56;102078.03;4988777;28;20058;-70
2021/04/02 09:12:21;;;;;;;82.53;34.35;;;;;;;6.89;93.22;102082.34;4988702;28;20041;-71
2021/04/02 09:14:49;;;;;;;80.95;35.22;;;;;;;6.96;92.55;102085.72;4990946;28;20483;-72
2021/04/02 09:17:20;;;;;;;71.45;29.95;;;;;;;7.06;91.76;102079.19;4988249;28;20054;-73
2021/04/02 09:19:46;;;;;;;56.58;24.05;;;;;;;7.04;91.16;102089.03;4986283;28;20026;-72
2021/04/02 09:22:13;;;;;;;54.03;24.20;;;;;;;7.12;90.95;102092.38;4986434;28;20061;-72
2021/04/02 09:24:40;;;;;;;56.03;22.42;;;;;;;7.14;90.35;102092.31;4984251;28;20118;-72
2021/04/02 09:27:27;;;;;;;64.63;25.48;;;;;;;7.12;90.52;102089.69;4986170;28;20062;-72
2021/04/02 09:29:56;;;;;;;66.13;27.35;;;;;;;7.02;90.47;102076.66;4976993;28;20562;-72
2021/04/02 09:32:32;;;;;;;58.28;23.35;;;;;;;7.17;91.32;102076.19;4984936;28;20049;-72
2021/04/02 09:34:59;;;;;;;52.92;21.10;;;;;;;7.09;90.45;102079.13;4985125;28;20360;-72
2021/04/02 09:37:25;;;;;;;66.05;19.67;;;;;;;7.12;90.80;102083.47;4985285;28;20030;-73
2021/04/02 09:39:57;;;;;;;56.90;22.45;;;;;;;7.22;90.22;102079.66;4983836;28;20034;-72
2021/04/02 09:42:22;;;;;;;72.45;25.48;;;;;;;7.29;89.41;102081.19;4988328;28;20042;-72
2021/04/02 09:44:48;;;;;;;62.95;26.13;;;;;;;7.27;87.60;102083.94;4981975;28;20042;-72
2021/04/02 09:47:14;;;;;;;83.20;30.38;;;;;;;7.21;88.48;102077.88;4986473;28;20041;-72
2021/04/02 09:49:41;;;;;;;79.05;32.55;;;;;;;7.18;88.77;102081.50;4985180;28;20761;-72
2021/04/02 09:52:07;;;;;;;61.00;26.23;;;;;;;7.28;87.86;102088.31;4987583;28;20034;-72
2021/04/02 09:54:34;;;;;;;68.75;28.15;;;;;;;7.39;88.09;102076.47;4987145;28;20995;-72
2021/04/02 09:57:02;;;;;;;72.55;31.10;;;;;;;7.36;86.86;102077.41;4987399;28;20037;-72
2021/04/02 09:59:28;;;;;;;70.57;28.48;;;;;;;7.37;87.98;102067.63;4975995;28;20045;-72
2021/04/02 10:01:53;;;;;;;42.95;19.15;;;;;;;7.42;87.55;102065.69;4982937;28;20039;-70
2021/04/02 10:04:19;;;;;;;37.70;14.13;;;;;;;7.48;87.73;102068.16;4979927;28;20053;-72
2021/04/02 10:06:46;;;;;;;40.03;16.83;;;;;;;7.46;88.98;102070.03;4980731;28;20169;-72
2021/04/02 10:09:12;;;;;;;33.03;15.90;;;;;;;7.60;89.06;102076.69;4984640;28;20360;-72
2021/04/02 10:11:42;;;;;;;29.10;14.15;;;;;;;7.67;89.57;102074.69;4988260;28;20061;-72
2021/04/02 10:14:07;;;;;;;22.90;11.50;;;;;;;7.65;88.51;102073.91;4988334;28;20474;-72
2021/04/02 10:16:33;;;;;;;23.92;12.18;;;;;;;7.54;88.54;102070.66;4987841;28;20109;-72
2021/04/02 10:18:58;;;;;;;29.48;14.40;;;;;;;7.56;88.05;102071.50;4986030;28;20425;-73
2021/04/02 10:21:24;;;;;;;34.35;15.02;;;;;;;7.50;88.28;102074.34;4965408;28;20484;-72
2021/04/02 10:23:51;;;;;;;29.83;14.30;;;;;;;7.46;88.37;102067.34;4981937;28;20040;-72
2021/04/02 10:26:17;;;;;;;24.65;12.43;;;;;;;7.45;87.72;102076.28;4985477;28;20037;-72
2021/04/02 10:28:43;;;;;;;21.13;9.95;;;;;;;7.55;87.84;102072.41;4982045;28;20038;-72
2021/04/02 10:31:10;;;;;;;18.35;9.88;;;;;;;7.43;87.29;102070.09;4982585;28;20101;-72
2021/04/02 10:33:35;;;;;;;23.67;9.43;;;;;;;7.40;87.29;102068.41;4980066;28;20029;-72
2021/04/02 10:36:01;;;;;;;24.20;11.57;;;;;;;7.54;87.14;102076.00;4985144;28;20042;-72
2021/04/02 10:38:27;;;;;;;23.75;12.07;;;;;;;7.61;86.40;102066.88;4988180;28;20077;-72
2021/04/02 10:40:54;;;;;;;26.23;11.93;;;;;;;7.61;87.63;102066.88;4986938;28;20042;-72
2021/04/02 10:43:20;;;;;;;25.95;12.70;;;;;;;7.76;84.99;102071.75;4985236;28;20549;-72
2021/04/02 10:45:46;;;;;;;26.25;10.65;;;;;;;7.82;83.22;102071.56;4987925;28;20435;-72
2021/04/02 10:48:11;;;;;;;18.10;8.00;;;;;;;7.75;83.17;102064.66;4990447;28;20065;-72
2021/04/02 10:50:39;;;;;;;30.27;11.05;;;;;;;7.76;82.91;102071.75;4989684;28;20092;-72
2021/04/02 10:53:05;;;;;;;24.80;8.30;;;;;;;7.85;81.80;102071.47;4990547;28;20034;-72
2021/04/02 10:55:31;;;;;;;27.33;9.30;;;;;;;7.93;81.43;102064.09;4990554;28;20030;-72
2021/04/02 10:57:56;;;;;;;24.15;10.38;;;;;;;7.99;80.28;102069.22;4991246;28;20034;-72
2021/04/02 11:00:23;;;;;;;28.55;11.00;;;;;;;7.97;80.77;102075.53;4990723;28;20069;-72
2021/04/02 11:02:50;;;;;;;13.13;5.50;;;;;;;7.96;81.33;102080.00;4989832;28;20034;-72
2021/04/02 11:05:16;;;;;;;17.13;6.55;;;;;;;8.00;82.00;102081.69;4990937;28;20026;-72
2021/04/02 11:07:41;;;;;;;17.65;5.05;;;;;;;7.99;82.58;102069.22;4986017;28;20034;-72
2021/04/02 11:10:09;;;;;;;17.58;4.90;;;;;;;7.97;81.60;102076.41;4990406;28;20034;-72
2021/04/02 11:12:35;;;;;;;18.08;8.20;;;;;;;8.04;79.82;102082.44;4983593;28;20057;-73
2021/04/02 11:15:02;;;;;;;15.88;5.63;;;;;;;8.02;81.21;102079.81;4989631;28;20073;-73
2021/04/02 11:17:27;;;;;;;12.88;5.07;;;;;;;8.00;80.39;102081.69;4984543;28;20030;-73
2021/04/02 11:19:54;;;;;;;12.40;4.22;;;;;;;7.93;81.66;102069.44;4990546;28;20077;-73
2021/04/02 11:22:21;;;;;;;13.35;4.72;;;;;;;7.98;81.22;102074.63;4990999;28;20042;-72
2021/04/02 11:24:46;;;;;;;10.95;5.15;;;;;;;7.99;80.89;102069.22;4989254;28;20133;-72
2021/04/02 11:27:12;;;;;;;12.35;4.38;;;;;;;7.95;80.22;102072.94;4986037;28;20105;-71